createdAt,value
2018-11-02T00:02:17.203Z,12.97
2018-11-02T00:04:45.255Z,12.83
2018-11-02T00:07:13.133Z,13.07
2018-11-02T00:09:41.731Z,11.23
2018-11-02T00:12:10.154Z,15.30
2018-11-02T00:14:37.987Z,16.27
2018-11-02T00:17:06.215Z,13.50
2018-11-02T00:19:35.103Z,14.27
2018-11-02T00:22:06.387Z,16.07
2018-11-02T00:24:34.281Z,15.63
2018-11-02T00:27:02.557Z,15.53
2018-11-02T00:29:32.312Z,15.53
2018-11-02T00:32:00.248Z,16.23
2018-11-02T00:34:28.857Z,15.00
2018-11-02T00:36:56.763Z,20.30
2018-11-02T00:39:25.406Z,23.40
2018-11-02T00:41:53.276Z,18.63
2018-11-02T00:44:21.131Z,16.37
2018-11-02T00:46:48.974Z,17.83
2018-11-02T00:49:16.816Z,17.67
2018-11-02T00:51:44.647Z,19.30
2018-11-02T00:54:12.533Z,22.60
2018-11-02T00:56:40.416Z,15.87
2018-11-02T00:59:08.268Z,14.53
2018-11-02T01:01:36.110Z,15.63
2018-11-02T01:04:03.992Z,14.33
2018-11-02T01:06:31.857Z,15.20
2018-11-02T01:08:59.758Z,13.70
2018-11-02T01:11:27.598Z,16.10
2018-11-02T01:13:55.447Z,12.57
2018-11-02T01:16:23.294Z,15.57
2018-11-02T01:18:51.200Z,15.03
2018-11-02T01:21:19.039Z,13.67
2018-11-02T01:23:46.984Z,15.30
2018-11-02T01:26:14.805Z,11.20
2018-11-02T01:28:42.648Z,13.43
2018-11-02T01:31:10.467Z,10.83
2018-11-02T01:33:39.427Z,11.10
2018-11-02T01:36:08.848Z,15.87
2018-11-02T01:38:37.186Z,12.93
2018-11-02T01:41:05.203Z,10.03
2018-11-02T01:43:33.477Z,11.80
2018-11-02T01:46:01.372Z,10.70
2018-11-02T01:48:29.228Z,11.30
2018-11-02T01:50:57.628Z,10.23
2018-11-02T01:53:25.853Z,11.93
2018-11-02T01:55:53.700Z,12.57
2018-11-02T01:58:21.539Z,9.17
2018-11-02T02:00:49.903Z,12.23
2018-11-02T02:03:17.744Z,10.97
2018-11-02T02:05:45.984Z,11.67
2018-11-02T02:08:14.247Z,9.57
2018-11-02T02:10:42.075Z,9.20
2018-11-02T02:13:10.758Z,9.43
2018-11-02T02:15:39.195Z,11.20
2018-11-02T02:18:07.056Z,9.20
2018-11-02T02:20:35.669Z,10.87
2018-11-02T02:23:04.106Z,10.33
2018-11-02T02:25:32.747Z,11.10
2018-11-02T02:28:00.720Z,8.93
2018-11-02T02:30:28.555Z,9.43
2018-11-02T02:32:56.384Z,10.80
2018-11-02T02:35:24.716Z,13.67
2018-11-02T02:37:52.950Z,11.70
2018-11-02T02:40:21.443Z,12.27
2018-11-02T02:42:50.047Z,10.10
2018-11-02T02:45:17.965Z,10.90
2018-11-02T02:47:45.813Z,13.30
2018-11-02T02:50:14.495Z,14.27
2018-11-02T02:52:44.125Z,8.90
2018-11-02T02:55:12.643Z,12.13
2018-11-02T02:57:40.501Z,17.63
2018-11-02T03:00:10.274Z,12.87
2018-11-02T03:02:38.106Z,11.73
2018-11-02T03:05:06.795Z,12.53
2018-11-02T03:07:34.666Z,10.47
2018-11-02T03:10:02.509Z,9.57
2018-11-02T03:12:30.355Z,12.03
2018-11-02T03:14:58.212Z,14.63
2018-11-02T03:17:26.144Z,10.80
2018-11-02T03:19:54.024Z,8.43
2018-11-02T03:22:22.139Z,9.63
2018-11-02T03:24:49.983Z,9.50
2018-11-02T03:27:18.114Z,13.43
2018-11-02T03:29:46.026Z,14.13
2018-11-02T03:32:14.759Z,8.60
2018-11-02T03:34:43.352Z,9.37
2018-11-02T03:37:11.179Z,12.57
2018-11-02T03:39:39.043Z,10.90
2018-11-02T03:42:07.141Z,10.53
2018-11-02T03:44:35.511Z,12.43
2018-11-02T03:47:03.431Z,12.07
2018-11-02T03:49:31.264Z,12.03
2018-11-02T03:51:59.236Z,10.23
2018-11-02T03:54:27.510Z,9.97
2018-11-02T03:56:55.518Z,10.93
2018-11-02T03:59:23.235Z,8.67
2018-11-02T04:01:51.897Z,9.97
2018-11-02T04:04:19.991Z,12.53
2018-11-02T04:06:47.943Z,12.37
2018-11-02T04:09:15.910Z,14.00
2018-11-02T04:11:43.676Z,12.73
2018-11-02T04:14:12.096Z,13.50
2018-11-02T04:16:40.502Z,13.70
2018-11-02T04:19:08.813Z,10.10
2018-11-02T04:21:49.002Z,15.47
2018-11-02T04:24:17.452Z,10.33
2018-11-02T04:26:45.890Z,11.20
2018-11-02T04:29:14.949Z,17.63
2018-11-02T04:31:43.688Z,14.00
2018-11-02T04:34:11.836Z,9.37
2018-11-02T04:36:39.665Z,10.77
2018-11-02T04:39:08.404Z,14.53
2018-11-02T04:41:36.563Z,9.93
2018-11-02T04:44:05.260Z,11.03
2018-11-02T04:46:33.130Z,13.77
2018-11-02T04:49:00.955Z,11.93
2018-11-02T04:51:28.801Z,12.63
2018-11-02T04:53:56.691Z,11.30
2018-11-02T04:56:25.591Z,11.57
2018-11-02T04:58:53.459Z,10.67
2018-11-02T05:01:22.221Z,10.90
2018-11-02T05:03:50.712Z,12.07
2018-11-02T05:06:18.545Z,12.70
2018-11-02T05:08:46.399Z,10.30
2018-11-02T05:11:15.302Z,10.47
2018-11-02T05:13:43.883Z,12.10
2018-11-02T05:16:11.899Z,10.70
2018-11-02T05:18:39.744Z,10.33
2018-11-02T05:21:08.758Z,10.57
2018-11-02T05:23:37.548Z,12.43
2018-11-02T05:26:06.131Z,11.33
2018-11-02T05:28:34.723Z,14.07
2018-11-02T05:31:02.712Z,11.03
2018-11-02T05:33:30.988Z,14.47
2018-11-02T05:35:59.467Z,11.30
2018-11-02T05:38:27.284Z,9.70
2018-11-02T05:40:55.758Z,10.43
2018-11-02T05:43:23.623Z,9.43
2018-11-02T05:45:51.555Z,9.97
2018-11-02T05:48:20.176Z,10.93
2018-11-02T05:50:48.520Z,9.53
2018-11-02T05:53:16.745Z,10.50
2018-11-02T05:55:44.979Z,11.67
2018-11-02T05:58:13.637Z,10.47
2018-11-02T06:00:42.100Z,10.00
2018-11-02T06:03:10.738Z,10.47
2018-11-02T06:05:38.564Z,8.80
2018-11-02T06:08:07.127Z,10.50
2018-11-02T06:10:35.464Z,9.93
2018-11-02T06:13:03.940Z,10.17
2018-11-02T06:15:32.551Z,10.67
2018-11-02T06:18:00.393Z,10.73
2018-11-02T06:20:29.034Z,9.77
2018-11-02T06:22:56.875Z,10.23
2018-11-02T06:25:24.707Z,8.70
2018-11-02T06:27:52.530Z,9.33
2018-11-02T06:30:20.585Z,12.07
2018-11-02T06:32:48.528Z,9.73
2018-11-02T06:35:16.279Z,11.10
2018-11-02T06:37:44.135Z,13.00
2018-11-02T06:40:11.979Z,10.20
2018-11-02T06:42:39.828Z,11.50
2018-11-02T06:45:08.918Z,6.87
2018-11-02T06:47:36.784Z,8.23
2018-11-02T06:50:04.647Z,10.07
2018-11-02T06:52:32.521Z,8.80
2018-11-02T06:55:00.860Z,7.47
2018-11-02T06:57:28.686Z,7.97
2018-11-02T06:59:56.762Z,8.77
2018-11-02T07:02:24.428Z,9.73
2018-11-02T07:04:52.891Z,9.90
2018-11-02T07:07:20.764Z,10.10
2018-11-02T07:09:48.608Z,8.50
2018-11-02T07:12:16.439Z,11.90
2018-11-02T07:14:45.119Z,9.27
2018-11-02T07:17:13.477Z,9.40
2018-11-02T07:19:41.328Z,23.63
2018-11-02T07:22:09.170Z,13.43
2018-11-02T07:24:37.032Z,12.87
2018-11-02T07:27:05.506Z,13.70
2018-11-02T07:29:33.911Z,10.77
2018-11-02T07:32:01.771Z,10.23
2018-11-02T07:34:30.466Z,11.20
2018-11-02T07:36:59.034Z,8.70
2018-11-02T07:39:27.280Z,8.87
2018-11-02T07:41:55.120Z,10.00
2018-11-02T07:44:22.955Z,10.13
2018-11-02T07:46:50.778Z,12.27
2018-11-02T07:49:18.670Z,10.00
2018-11-02T07:51:46.521Z,10.80
2018-11-02T07:54:14.667Z,11.23
2018-11-02T07:56:42.540Z,10.37
2018-11-02T07:59:10.957Z,9.23
2018-11-02T08:01:39.040Z,9.67
2018-11-02T08:04:06.878Z,10.40
2018-11-02T08:06:34.885Z,12.50
2018-11-02T08:09:02.840Z,11.73
2018-11-02T08:11:30.839Z,10.70
2018-11-02T08:13:58.941Z,8.93
2018-11-02T08:16:26.780Z,12.50
2018-11-02T08:18:54.712Z,10.87
2018-11-02T08:21:22.520Z,10.63
2018-11-02T08:23:50.347Z,11.13
2018-11-02T08:26:18.185Z,10.73
2018-11-02T08:28:46.016Z,12.13
2018-11-02T08:31:14.060Z,12.03
2018-11-02T08:33:42.031Z,11.20
2018-11-02T08:36:09.881Z,13.60
2018-11-02T08:38:37.752Z,12.47
2018-11-02T08:41:05.659Z,13.97
2018-11-02T08:43:33.509Z,14.17
2018-11-02T08:46:01.341Z,11.93
2018-11-02T08:48:29.186Z,12.90
2018-11-02T08:50:57.025Z,14.97
2018-11-02T08:53:24.884Z,11.93
2018-11-02T08:55:52.742Z,15.53
2018-11-02T08:58:20.804Z,11.97
2018-11-02T09:00:48.476Z,12.77
2018-11-02T09:03:16.326Z,12.40
2018-11-02T09:05:44.828Z,14.90
2018-11-02T09:08:13.265Z,15.37
2018-11-02T09:10:42.952Z,12.70
2018-11-02T09:13:10.842Z,12.33
2018-11-02T09:15:38.673Z,13.23
2018-11-02T09:18:06.996Z,14.83
2018-11-02T09:20:35.290Z,15.63
2018-11-02T09:23:03.913Z,15.00
2018-11-02T09:25:32.547Z,14.90
2018-11-02T09:28:01.265Z,12.93
2018-11-02T09:30:29.618Z,13.17
2018-11-02T09:32:58.023Z,11.53
2018-11-02T09:35:26.687Z,13.77
2018-11-02T09:37:55.332Z,14.17
2018-11-02T09:40:23.302Z,12.37
2018-11-02T09:42:51.377Z,17.40
2018-11-02T09:45:19.666Z,12.27
2018-11-02T09:47:48.067Z,12.47
2018-11-02T09:50:16.306Z,12.53
2018-11-02T09:52:44.783Z,11.33
2018-11-02T09:55:14.519Z,10.37
2018-11-02T09:57:43.814Z,10.67
2018-11-02T10:00:12.947Z,11.67
2018-11-02T10:02:40.928Z,11.17
2018-11-02T10:05:09.720Z,12.07
2018-11-02T10:07:38.741Z,11.80
2018-11-02T10:10:07.187Z,10.67
2018-11-02T10:12:35.829Z,10.93
2018-11-02T10:15:04.543Z,10.93
2018-11-02T10:17:33.147Z,10.23
2018-11-02T10:20:01.546Z,9.13
2018-11-02T10:22:30.195Z,11.57
2018-11-02T10:24:58.610Z,8.13
2018-11-02T10:27:26.572Z,10.03
2018-11-02T10:29:54.994Z,10.27
2018-11-02T10:32:23.555Z,9.43
2018-11-02T10:34:52.112Z,11.60
2018-11-02T10:37:20.452Z,9.47
2018-11-02T10:39:48.889Z,8.57
2018-11-02T10:42:16.827Z,8.00
2018-11-02T10:44:45.741Z,11.23
2018-11-02T10:47:13.764Z,12.13
2018-11-02T10:49:41.620Z,11.63
2018-11-02T10:52:09.503Z,9.10
2018-11-02T10:54:37.418Z,10.37
2018-11-02T10:57:05.708Z,8.93
2018-11-02T10:59:33.588Z,9.17
2018-11-02T11:02:08.566Z,10.60
2018-11-02T11:04:36.995Z,9.37
2018-11-02T11:07:04.867Z,8.80
2018-11-02T11:09:32.744Z,11.43
2018-11-02T11:12:00.629Z,7.90
2018-11-02T11:14:28.886Z,10.07
2018-11-02T11:16:56.749Z,8.90
2018-11-02T11:19:24.667Z,9.03
2018-11-02T11:21:52.539Z,7.37
2018-11-02T11:24:20.404Z,7.17
2018-11-02T11:26:48.296Z,9.00
2018-11-02T11:29:16.153Z,8.17
2018-11-02T11:31:44.032Z,7.10
2018-11-02T11:34:11.927Z,5.33
2018-11-02T11:36:39.793Z,5.17
2018-11-02T11:39:08.992Z,5.27
2018-11-02T11:41:36.857Z,8.27
2018-11-02T11:44:04.741Z,7.30
2018-11-02T11:46:32.602Z,6.17
2018-11-02T11:49:00.716Z,6.97
2018-11-02T11:51:28.655Z,4.40
2018-11-02T11:53:56.513Z,4.37
2018-11-02T11:56:24.803Z,4.03
2018-11-02T11:58:52.671Z,3.90
2018-11-02T12:01:20.560Z,7.87
2018-11-02T12:03:48.926Z,3.73
2018-11-02T12:06:16.924Z,4.60
2018-11-02T12:08:44.981Z,5.33
2018-11-02T12:11:13.275Z,5.53
2018-11-02T12:13:41.402Z,4.07
2018-11-02T12:16:09.253Z,5.17
2018-11-02T12:18:37.122Z,8.63
2018-11-02T12:21:05.513Z,3.00
2018-11-02T12:23:33.834Z,5.90
2018-11-02T12:26:02.360Z,3.73
2018-11-02T12:28:30.255Z,3.30
2018-11-02T12:30:58.142Z,4.60
2018-11-02T12:33:26.024Z,4.63
2018-11-02T12:35:54.376Z,3.30
2018-11-02T12:38:23.007Z,3.70
2018-11-02T12:40:51.147Z,6.47
2018-11-02T12:43:19.718Z,3.57
2018-11-02T12:45:48.309Z,3.50
2018-11-02T12:48:16.627Z,3.27
2018-11-02T12:50:45.183Z,5.20
2018-11-02T12:53:13.816Z,5.33
2018-11-02T12:55:42.268Z,3.93
2018-11-02T12:58:10.120Z,3.60
2018-11-02T13:00:38.749Z,2.97
2018-11-02T13:03:06.627Z,2.70
2018-11-02T13:05:34.740Z,2.47
2018-11-02T13:08:02.627Z,2.40
2018-11-02T13:10:30.490Z,3.03
2018-11-02T13:12:58.346Z,3.20
2018-11-02T13:15:26.235Z,2.30
2018-11-02T13:17:54.070Z,3.70
2018-11-02T13:20:22.238Z,2.83
2018-11-02T13:22:50.965Z,2.57
2018-11-02T13:25:20.088Z,3.73
2018-11-02T13:27:49.003Z,2.80
2018-11-02T13:30:17.324Z,2.77
2018-11-02T13:32:45.906Z,2.70
2018-11-02T13:35:16.443Z,2.57
2018-11-02T13:37:45.259Z,2.07
2018-11-02T13:40:14.703Z,2.10
2018-11-02T13:42:43.405Z,2.27
2018-11-02T13:45:13.356Z,4.27
2018-11-02T13:47:42.617Z,1.97
2018-11-02T13:50:11.704Z,2.10
2018-11-02T13:52:40.587Z,1.90
2018-11-02T13:55:09.614Z,3.00
2018-11-02T13:57:38.260Z,3.30
2018-11-02T14:00:07.297Z,2.47
2018-11-02T14:02:35.151Z,5.67
2018-11-02T14:05:03.020Z,4.07
2018-11-02T14:07:31.544Z,5.77
2018-11-02T14:09:59.410Z,4.77
2018-11-02T14:12:28.017Z,4.10
2018-11-02T14:14:55.867Z,5.03
2018-11-02T14:17:24.512Z,3.70
2018-11-02T14:19:53.123Z,3.60
2018-11-02T14:22:21.579Z,6.53
2018-11-02T14:24:50.216Z,3.27
2018-11-02T14:27:18.064Z,3.97
2018-11-02T14:29:46.714Z,3.00
2018-11-02T14:32:15.397Z,3.13
2018-11-02T14:34:43.984Z,5.07
2018-11-02T14:37:12.387Z,7.07
2018-11-02T14:39:40.216Z,6.67
2018-11-02T14:42:08.726Z,5.03
2018-11-02T14:44:36.560Z,4.17
2018-11-02T14:47:05.207Z,5.47
2018-11-02T14:49:33.643Z,7.70
2018-11-02T14:52:01.492Z,5.60
2018-11-02T14:54:29.352Z,5.33
2018-11-02T14:56:57.467Z,6.43
2018-11-02T14:59:25.782Z,5.37
2018-11-02T15:01:54.035Z,4.63
2018-11-02T15:04:22.735Z,6.20
2018-11-02T15:06:50.689Z,5.77
2018-11-02T15:09:19.194Z,11.53
2018-11-02T15:11:47.606Z,7.83
2018-11-02T15:14:15.464Z,6.00
2018-11-02T15:16:43.300Z,6.93
2018-11-02T15:19:11.143Z,8.80
2018-11-02T15:21:39.057Z,7.70
2018-11-02T15:24:07.679Z,10.17
2018-11-02T15:26:36.470Z,9.23
2018-11-02T15:29:05.119Z,9.07
2018-11-02T15:31:33.775Z,6.93
2018-11-02T15:34:01.640Z,8.77
2018-11-02T15:36:29.591Z,8.43
2018-11-02T15:38:57.429Z,7.07
2018-11-02T15:41:25.275Z,9.80
2018-11-02T15:43:53.583Z,6.20
2018-11-02T15:46:21.426Z,8.87
2018-11-02T15:48:49.916Z,6.03
2018-11-02T15:51:17.756Z,6.10
2018-11-02T15:53:46.159Z,6.63
2018-11-02T15:56:14.003Z,6.80
2018-11-02T15:58:42.206Z,5.10
2018-11-02T16:01:10.733Z,7.30
2018-11-02T16:03:39.132Z,4.17
2018-11-02T16:06:07.376Z,4.00
2018-11-02T16:08:35.261Z,3.93
2018-11-02T16:11:03.670Z,4.93
2018-11-02T16:13:31.922Z,5.20
2018-11-02T16:16:00.170Z,8.43
2018-11-02T16:18:28.587Z,8.03
2018-11-02T16:20:56.836Z,4.83
2018-11-02T16:23:24.705Z,2.97
2018-11-02T16:25:52.551Z,3.43
2018-11-02T16:28:20.428Z,8.27
2018-11-02T16:30:48.396Z,5.27
2018-11-02T16:33:16.835Z,3.60
2018-11-02T16:35:45.364Z,3.17
2018-11-02T16:38:13.216Z,4.53
2018-11-02T16:40:41.124Z,5.30
2018-11-02T16:43:09.685Z,5.03
2018-11-02T16:45:37.559Z,3.83
2018-11-02T16:48:05.594Z,3.53
2018-11-02T16:50:33.526Z,3.63
2018-11-02T16:53:01.314Z,3.33
2018-11-02T16:55:29.234Z,5.13
2018-11-02T16:57:57.133Z,5.00
2018-11-02T17:00:25.404Z,3.50
2018-11-02T17:02:53.674Z,5.93
2018-11-02T17:05:22.072Z,3.30
2018-11-02T17:07:49.938Z,5.23
2018-11-02T17:10:18.379Z,6.43
2018-11-02T17:12:46.363Z,4.53
2018-11-02T17:15:15.072Z,3.93
2018-11-02T17:17:42.940Z,5.57
2018-11-02T17:20:13.931Z,3.23
2018-11-02T17:22:41.851Z,2.33
2018-11-02T17:25:11.323Z,2.20
2018-11-02T17:27:40.119Z,2.43
2018-11-02T17:30:09.153Z,2.43
2018-11-02T17:32:37.467Z,2.90
2018-11-02T17:35:05.923Z,2.47
2018-11-02T17:37:34.603Z,2.67
2018-11-02T17:40:03.228Z,3.43
2018-11-02T17:42:31.436Z,3.07
2018-11-02T17:45:00.423Z,2.30
2018-11-02T17:47:28.287Z,2.70
2018-11-02T17:49:56.499Z,3.80
2018-11-02T17:52:25.204Z,3.40
2018-11-02T17:54:53.187Z,7.53
2018-11-02T17:57:21.040Z,3.73
2018-11-02T17:59:48.896Z,3.80
2018-11-02T18:02:16.825Z,2.60
2018-11-02T18:04:44.670Z,2.57
2018-11-02T18:07:13.113Z,4.60
2018-11-02T18:09:41.554Z,3.10
2018-11-02T18:12:10.241Z,3.50
2018-11-02T18:14:38.722Z,3.70
2018-11-02T18:17:07.589Z,2.60
2018-11-02T18:19:35.427Z,2.53
2018-11-02T18:22:03.310Z,2.70
2018-11-02T18:24:31.238Z,2.27
2018-11-02T18:26:59.477Z,2.30
2018-11-02T18:29:28.109Z,2.77
2018-11-02T18:31:56.728Z,3.43
2018-11-02T18:34:25.131Z,4.60
2018-11-02T18:36:53.399Z,4.63
2018-11-02T18:39:21.240Z,5.47
2018-11-02T18:41:49.816Z,3.63
2018-11-02T18:44:18.094Z,4.43
2018-11-02T18:46:46.359Z,3.23
2018-11-02T18:49:14.527Z,2.57
2018-11-02T18:51:42.855Z,5.27
2018-11-02T18:54:11.299Z,3.57
2018-11-02T18:56:39.935Z,4.07
2018-11-02T18:59:09.308Z,5.63
2018-11-02T19:01:37.790Z,5.87
2018-11-02T19:04:06.029Z,3.07
2018-11-02T19:06:34.505Z,3.90
2018-11-02T19:09:02.517Z,3.33
2018-11-02T19:11:31.157Z,4.10
2018-11-02T19:13:59.798Z,3.77
2018-11-02T19:16:28.242Z,3.83
2018-11-02T19:18:56.644Z,3.33
2018-11-02T19:21:24.997Z,5.03
2018-11-02T19:23:53.335Z,5.00
2018-11-02T19:26:21.803Z,3.63
2018-11-02T19:28:50.250Z,3.73
2018-11-02T19:31:18.966Z,4.63
2018-11-02T19:33:47.236Z,5.40
2018-11-02T19:36:15.071Z,5.47
2018-11-02T19:38:43.036Z,5.07
2018-11-02T19:41:11.005Z,4.83
2018-11-02T19:43:39.517Z,3.23
2018-11-02T19:46:07.356Z,6.90
2018-11-02T19:48:35.801Z,7.23
2018-11-02T19:51:04.273Z,9.53
2018-11-02T19:53:32.721Z,5.13
2018-11-02T19:56:00.583Z,4.63
2018-11-02T19:58:28.703Z,4.47
2018-11-02T20:00:56.624Z,7.80
2018-11-02T20:03:24.498Z,4.40
2018-11-02T20:05:53.104Z,4.80
2018-11-02T20:08:21.135Z,4.93
2018-11-02T20:10:49.020Z,4.20
2018-11-02T20:13:16.879Z,4.17
2018-11-02T20:15:44.759Z,4.10
2018-11-02T20:18:12.650Z,4.00
2018-11-02T20:20:40.998Z,3.97
2018-11-02T20:23:08.826Z,4.33
2018-11-02T20:25:37.590Z,5.40
2018-11-02T20:28:06.120Z,3.50
2018-11-02T20:30:33.961Z,4.67
2018-11-02T20:33:01.787Z,4.27
2018-11-02T20:35:29.992Z,13.17
2018-11-02T20:37:58.520Z,4.67
2018-11-02T20:40:26.900Z,3.40
2018-11-02T20:42:54.739Z,4.20
2018-11-02T20:45:23.231Z,3.47
2018-11-02T20:47:53.855Z,3.30
2018-11-02T20:50:22.469Z,4.37
2018-11-02T20:52:51.026Z,3.10
2018-11-02T20:55:19.635Z,4.57
2018-11-02T20:57:47.563Z,4.33
2018-11-02T21:00:19.751Z,2.50
2018-11-02T21:02:47.632Z,3.27
2018-11-02T21:05:17.180Z,2.60
2018-11-02T21:07:46.149Z,3.00
2018-11-02T21:10:15.278Z,4.70
2018-11-02T21:12:43.132Z,4.33
2018-11-02T21:15:13.052Z,3.90
2018-11-02T21:17:40.927Z,4.80
2018-11-02T21:20:10.721Z,4.23
2018-11-02T21:22:38.855Z,3.73
2018-11-02T21:25:07.122Z,4.07
2018-11-02T21:27:34.953Z,4.90
2018-11-02T21:30:03.190Z,4.33
2018-11-02T21:32:31.655Z,4.47
2018-11-02T21:34:59.904Z,4.10
2018-11-02T21:37:28.338Z,3.10
2018-11-02T21:39:56.175Z,3.67
2018-11-02T21:42:24.027Z,3.93
2018-11-02T21:44:51.871Z,3.50
2018-11-02T21:47:20.329Z,2.77
2018-11-02T21:49:48.736Z,3.37
2018-11-02T21:52:17.217Z,2.97
2018-11-02T21:54:45.828Z,3.00
2018-11-02T21:57:13.885Z,3.07
2018-11-02T21:59:42.519Z,2.40
2018-11-02T22:02:11.014Z,2.60
2018-11-02T22:04:39.574Z,4.40
2018-11-02T22:07:07.811Z,2.80
2018-11-02T22:09:36.051Z,3.90
2018-11-02T22:12:04.557Z,2.70
2018-11-02T22:14:32.408Z,2.37
2018-11-02T22:17:00.240Z,4.03
2018-11-02T22:19:28.971Z,3.90
2018-11-02T22:21:57.498Z,4.47
2018-11-02T22:24:25.896Z,2.20
2018-11-02T22:26:54.197Z,6.53
2018-11-02T22:29:22.994Z,3.93
2018-11-02T22:31:51.087Z,2.93
2018-11-02T22:34:19.844Z,2.87
2018-11-02T22:36:48.500Z,3.27
2018-11-02T22:39:16.973Z,2.23
2018-11-02T22:41:45.600Z,3.63
2018-11-02T22:44:13.441Z,3.60
2018-11-02T22:46:41.301Z,2.50
2018-11-02T22:49:09.954Z,2.27
2018-11-02T22:51:37.788Z,4.90
2018-11-02T22:54:06.246Z,2.33
2018-11-02T22:56:34.121Z,2.20
2018-11-02T22:59:01.957Z,1.83
2018-11-02T23:01:30.556Z,2.30
2018-11-02T23:04:00.175Z,2.93
2018-11-02T23:06:28.844Z,2.17
2018-11-02T23:08:56.841Z,1.67
2018-11-02T23:11:25.006Z,1.83
2018-11-02T23:13:53.147Z,1.90
2018-11-02T23:16:21.299Z,2.50
2018-11-02T23:18:49.630Z,2.43
2018-11-02T23:21:17.506Z,3.23
2018-11-02T23:23:45.353Z,1.60
2018-11-02T23:26:13.208Z,2.40
2018-11-02T23:28:41.044Z,1.77
2018-11-02T23:31:09.861Z,1.90
2018-11-02T23:33:37.870Z,1.93
2018-11-02T23:36:05.758Z,2.00
2018-11-02T23:38:34.279Z,2.67
2018-11-02T23:41:02.472Z,2.07
2018-11-02T23:43:30.653Z,2.30
2018-11-02T23:45:58.455Z,2.03
2018-11-02T23:48:26.326Z,4.37
2018-11-02T23:50:54.158Z,2.50
2018-11-02T23:53:22.371Z,2.43
2018-11-02T23:55:50.241Z,2.23
2018-11-02T23:58:18.207Z,5.37
